Time;durP1;ratioP1;P1;durP2;ratioP2;P2;SDS_P1;SDS_P2;PMS_P1;PMS_P2;Temp;Humidity;BMP_temperature;BMP_pressure;BME280_temperature;BME280_humidity;BME280_pressure;Samples;Min_cycle;Max_cycle;Signal;HPM_P1;HPM_P2
2023/08/23 00:00:42;;;;;;;14.43;11.27;;;;;;;25.18;100.00;101467.88;2114748;28;20260;-66
2023/08/23 00:01:43;;;;;;;14.23;11.73;;;;;;;25.14;100.00;101473.03;2114564;28;20190;-66
2023/08/23 00:02:43;;;;;;;12.00;11.00;;;;;;;25.11;100.00;101465.53;2119687;27;20177;-66
2023/08/23 00:03:44;;;;;;;13.10;11.93;;;;;;;25.03;100.00;101458.81;2118801;27;20315;-66
2023/08/23 00:04:44;;;;;;;13.07;11.87;;;;;;;24.94;100.00;101447.72;2114266;28;20217;-66
2023/08/23 00:05:45;;;;;;;14.17;12.77;;;;;;;24.31;100.00;101350.13;2113997;28;20650;-66
2023/08/23 00:06:45;;;;;;;14.10;12.57;;;;;;;25.02;100.00;101466.53;2114411;27;20223;-66
2023/08/23 00:07:46;;;;;;;16.57;12.37;;;;;;;25.01;100.00;101469.88;2114914;28;20265;-66
2023/08/23 00:08:46;;;;;;;13.80;12.53;;;;;;;25.02;100.00;101469.38;2114250;28;20559;-66
2023/08/23 00:09:46;;;;;;;13.63;11.83;;;;;;;24.96;100.00;101456.47;2114601;28;20194;-66
2023/08/23 00:10:53;;;;;;;13.57;12.17;;;;;;;25.01;100.00;101462.16;2119753;27;20307;-66
2023/08/23 00:11:53;;;;;;;12.90;11.30;;;;;;;24.97;100.00;101461.63;2117513;27;20281;-66
2023/08/23 00:12:56;;;;;;;13.00;11.80;;;;;;;24.97;100.00;101455.97;2114311;27;20178;-66
2023/08/23 00:13:56;;;;;;;13.20;11.90;;;;;;;24.97;100.00;101458.03;2114202;28;20218;-66
2023/08/23 00:14:57;;;;;;;12.67;11.57;;;;;;;24.97;100.00;101455.97;2114272;28;20303;-66
2023/08/23 00:15:57;;;;;;;13.17;11.87;;;;;;;24.60;100.00;101398.66;2113856;28;20185;-66
2023/08/23 00:16:57;;;;;;;14.27;12.20;;;;;;;24.20;100.00;101342.34;2114776;28;20178;-66
2023/08/23 00:17:58;;;;;;;13.73;11.63;;;;;;;24.25;100.00;101340.84;2114577;28;20190;-66
2023/08/23 00:18:58;;;;;;;12.77;11.43;;;;;;;25.00;100.00;101454.94;2113885;28;20492;-66
2023/08/23 00:19:59;;;;;;;15.50;12.37;;;;;;;24.99;100.00;101453.41;2114296;28;20253;-66
2023/08/23 00:20:59;;;;;;;12.77;11.47;;;;;;;24.98;100.00;101459.59;2114507;28;20197;-66
2023/08/23 00:22:00;;;;;;;12.80;11.60;;;;;;;24.85;100.00;101447.94;2114163;28;20201;-66
2023/08/23 00:23:00;;;;;;;12.57;11.37;;;;;;;24.97;100.00;101463.72;2116903;27;20163;-66
2023/08/23 00:24:00;;;;;;;12.63;11.33;;;;;;;24.96;100.00;101454.41;2121381;27;20786;-66
2023/08/23 00:25:01;;;;;;;13.73;11.37;;;;;;;24.12;100.00;101332.81;2114570;27;20227;-66
2023/08/23 00:26:01;;;;;;;12.33;11.23;;;;;;;24.93;100.00;101463.94;2122653;27;20701;-66
2023/08/23 00:27:02;;;;;;;12.60;11.40;;;;;;;24.90;100.00;101456.47;2115246;27;20224;-66
2023/08/23 00:28:03;;;;;;;12.53;11.20;;;;;;;24.31;100.00;101376.38;2114282;27;20662;-66
2023/08/23 00:29:04;;;;;;;11.60;10.47;;;;;;;24.86;100.00;101460.81;2114451;28;20202;-66
2023/08/23 00:30:05;;;;;;;11.27;10.03;;;;;;;24.66;100.00;101435.53;2114106;27;20276;-66
2023/08/23 00:31:05;;;;;;;11.57;10.37;;;;;;;24.80;100.00;101458.00;2114129;27;20572;-66
2023/08/23 00:32:06;;;;;;;11.70;10.50;;;;;;;24.71;100.00;101463.88;2114143;28;20170;-66
2023/08/23 00:33:06;;;;;;;11.90;10.60;;;;;;;24.69;100.00;101460.00;2114137;28;20670;-66
2023/08/23 00:34:06;;;;;;;11.33;10.33;;;;;;;24.66;100.00;101463.88;2114671;28;20221;-66
2023/08/23 00:35:07;;;;;;;11.63;10.63;;;;;;;24.64;100.00;101463.59;2122331;27;20652;-67
2023/08/23 00:36:07;;;;;;;12.20;10.90;;;;;;;24.37;100.00;101418.91;2115082;27;20640;-66
2023/08/23 00:37:08;;;;;;;11.90;10.90;;;;;;;24.59;100.00;101467.19;2114217;28;20229;-66
2023/08/23 00:38:08;;;;;;;12.20;11.10;;;;;;;24.43;100.00;101442.34;2118646;27;20268;-67
2023/08/23 00:39:09;;;;;;;11.87;10.77;;;;;;;24.49;100.00;101451.66;2119221;27;20659;-66
2023/08/23 00:40:10;;;;;;;11.90;10.90;;;;;;;24.53;100.00;101466.34;2113868;28;20241;-66
2023/08/23 00:41:10;;;;;;;13.50;12.20;;;;;;;24.48;100.00;101462.22;2114234;28;20711;-66
2023/08/23 00:42:10;;;;;;;12.10;10.90;;;;;;;24.48;100.00;101469.94;2114041;28;20573;-66
2023/08/23 00:43:11;;;;;;;12.83;11.63;;;;;;;24.50;100.00;101470.19;2114617;28;20659;-66
2023/08/23 00:44:11;;;;;;;12.43;11.33;;;;;;;24.47;100.00;101466.31;2114379;28;20182;-66
2023/08/23 00:45:12;;;;;;;13.33;12.13;;;;;;;24.42;100.00;101461.41;2114147;27;20289;-66
2023/08/23 00:46:14;;;;;;;12.60;11.50;;;;;;;24.44;100.00;101464.53;2113645;28;20247;-66
2023/08/23 00:47:14;;;;;;;12.47;11.33;;;;;;;24.45;100.00;101474.56;2114217;28;20654;-66
2023/08/23 00:48:14;;;;;;;12.47;11.33;;;;;;;24.47;100.00;101462.72;2117009;27;20614;-66
2023/08/23 00:49:15;;;;;;;12.90;11.70;;;;;;;24.46;100.00;101467.59;2120715;27;20169;-66
2023/08/23 00:50:16;;;;;;;13.23;11.23;;;;;;;24.47;100.00;101465.56;2113887;27;20200;-66
2023/08/23 00:51:18;;;;;;;12.00;10.90;;;;;;;24.47;100.00;101466.31;2114093;28;20251;-66
2023/08/23 00:52:18;;;;;;;12.23;11.03;;;;;;;24.49;100.00;101465.81;2114013;28;20200;-66
2023/08/23 00:53:19;;;;;;;12.50;11.10;;;;;;;24.07;100.00;101400.72;2114208;28;20190;-66
2023/08/23 00:54:20;;;;;;;13.90;11.60;;;;;;;24.50;100.00;101470.97;2114342;28;20635;-66
2023/08/23 00:55:22;;;;;;;12.73;11.53;;;;;;;24.51;100.00;101474.59;2114036;28;20194;-66
2023/08/23 00:56:23;;;;;;;12.77;11.50;;;;;;;24.49;100.00;101460.16;2113675;28;20187;-66
2023/08/23 00:57:25;;;;;;;14.23;11.97;;;;;;;24.51;100.00;101466.84;2114175;27;20883;-66
2023/08/23 00:58:25;;;;;;;13.27;11.60;;;;;;;24.52;100.00;101468.41;2113999;27;20177;-66
2023/08/23 00:59:29;;;;;;;12.47;11.23;;;;;;;24.53;100.00;101461.47;2114124;28;20178;-65
2023/08/23 01:00:30;;;;;;;11.90;10.90;;;;;;;24.54;100.00;101465.06;2113755;27;20174;-66
2023/08/23 01:01:31;;;;;;;13.00;11.70;;;;;;;24.57;100.00;101466.91;2114438;28;20178;-66
2023/08/23 01:02:33;;;;;;;12.37;11.17;;;;;;;24.54;100.00;101456.56;2113828;28;20643;-66
2023/08/23 01:03:33;;;;;;;12.73;11.53;;;;;;;24.46;100.00;101459.09;2120910;27;20186;-66
2023/08/23 01:04:34;;;;;;;12.97;10.50;;;;;;;24.00;100.00;101392.72;2117056;27;20202;-66
2023/08/23 01:06:09;;;;;;;12.03;11.00;;;;;;;24.37;100.00;101461.41;2118069;27;20238;-66
2023/08/23 01:07:24;;;;;;;13.23;11.10;;;;;;;24.37;100.00;101459.31;2114646;27;20281;-66
2023/08/23 01:08:37;;;;;;;12.03;10.93;;;;;;;24.41;100.00;101468.34;2114493;28;20161;-66
2023/08/23 01:09:51;;;;;;;12.10;10.90;;;;;;;24.39;100.00;101464.47;2114457;28;20588;-66
2023/08/23 01:11:03;;;;;;;17.87;11.47;;;;;;;24.36;100.00;101468.34;2113543;28;20163;-66
2023/08/23 01:12:26;;;;;;;12.10;10.80;;;;;;;24.34;100.00;101471.69;2115221;27;20159;-66
2023/08/23 01:13:26;;;;;;;16.40;11.37;;;;;;;24.35;100.00;101467.56;2119446;27;20651;-66
2023/08/23 01:14:42;;;;;;;16.13;11.37;;;;;;;24.35;100.00;101467.56;2113799;28;20287;-66
2023/08/23 01:15:44;;;;;;;18.13;12.03;;;;;;;23.91;100.00;101401.41;2113585;28;20194;-66
2023/08/23 01:16:48;;;;;;;18.20;12.10;;;;;;;23.66;100.00;101376.78;2114074;28;20616;-66
2023/08/23 01:17:49;;;;;;;17.80;11.27;;;;;;;24.31;100.00;101472.69;2113956;28;20543;-66
2023/08/23 01:18:49;;;;;;;12.63;11.30;;;;;;;24.28;100.00;101465.22;2113522;28;20200;-67
2023/08/23 01:19:50;;;;;;;16.27;11.87;;;;;;;24.28;100.00;101465.22;2113798;28;20212;-67
2023/08/23 01:20:53;;;;;;;13.03;11.40;;;;;;;24.24;100.00;101470.34;2113776;28;20201;-66
2023/08/23 01:21:56;;;;;;;16.80;12.10;;;;;;;24.22;100.00;101464.41;2113752;28;20193;-66
2023/08/23 01:23:16;;;;;;;15.27;11.40;;;;;;;24.08;100.00;101444.75;2113842;27;20210;-66
2023/08/23 01:24:16;;;;;;;13.93;11.27;;;;;;;24.25;100.00;101473.97;2114157;28;20190;-66
2023/08/23 01:25:17;;;;;;;14.80;11.27;;;;;;;24.23;100.00;101473.66;2120549;27;20205;-66
2023/08/23 01:26:17;;;;;;;15.53;11.47;;;;;;;23.37;100.00;101345.97;2121962;27;20193;-66
2023/08/23 01:27:18;;;;;;;13.10;11.70;;;;;;;24.12;100.00;101476.44;2118386;27;20190;-66
2023/08/23 01:28:20;;;;;;;13.00;11.63;;;;;;;24.08;100.00;101468.19;2113982;27;20651;-66
2023/08/23 01:29:20;;;;;;;15.37;12.30;;;;;;;24.08;100.00;101473.06;2113963;27;20177;-66
2023/08/23 01:30:23;;;;;;;13.83;11.57;;;;;;;24.08;100.00;101465.34;2114864;27;20264;-67
2023/08/23 01:31:23;;;;;;;15.73;11.80;;;;;;;24.00;100.00;101450.09;2121914;28;20182;-66
2023/08/23 01:32:37;;;;;;;13.77;12.37;;;;;;;24.10;100.00;101464.84;2114200;28;20174;-66
2023/08/23 01:33:44;;;;;;;15.63;12.33;;;;;;;24.10;100.00;101462.03;2116473;28;20162;-66
2023/08/23 01:34:51;;;;;;;14.37;11.80;;;;;;;24.08;100.00;101462.53;2122629;27;20170;-66
2023/08/23 01:36:17;;;;;;;13.90;12.47;;;;;;;24.10;100.00;101464.84;2121773;27;20322;-66
2023/08/23 01:37:20;;;;;;;14.53;11.77;;;;;;;24.09;100.00;101466.13;2116443;27;20675;-67
2023/08/23 01:38:23;;;;;;;13.37;11.90;;;;;;;24.03;100.00;101460.44;2114519;27;20190;-66
2023/08/23 01:39:25;;;;;;;13.30;11.90;;;;;;;24.05;100.00;101460.69;2118695;27;20189;-66
2023/08/23 01:40:26;;;;;;;12.97;11.67;;;;;;;24.07;100.00;101460.19;2118794;27;20185;-66
2023/08/23 01:41:27;;;;;;;12.67;11.43;;;;;;;23.44;100.00;101368.91;2113418;27;20257;-66
2023/08/23 01:42:27;;;;;;;16.03;12.03;;;;;;;23.95;100.00;101458.59;2113561;27;20178;-66
2023/08/23 01:43:28;;;;;;;14.63;12.93;;;;;;;23.88;100.00;101465.44;2113939;28;20227;-66
2023/08/23 01:44:29;;;;;;;13.93;12.50;;;;;;;23.90;100.00;101462.91;2114353;28;20554;-66
2023/08/23 01:45:29;;;;;;;13.37;12.10;;;;;;;23.96;100.00;101466.53;2113481;27;20726;-66
2023/08/23 01:46:29;;;;;;;15.33;12.50;;;;;;;24.02;100.00;101472.25;2113871;28;20221;-66
2023/08/23 01:47:30;;;;;;;13.53;12.23;;;;;;;24.03;100.00;101460.44;2114153;28;20190;-66
2023/08/23 01:48:30;;;;;;;13.70;12.40;;;;;;;23.97;100.00;101458.84;2114068;28;20642;-66
2023/08/23 01:49:31;;;;;;;13.83;12.43;;;;;;;24.04;100.00;101466.84;2113898;28;20185;-66
2023/08/23 01:50:31;;;;;;;13.53;12.10;;;;;;;24.06;100.00;101465.06;2113702;28;20192;-66
2023/08/23 01:51:31;;;;;;;12.53;11.33;;;;;;;24.08;100.00;101468.19;2113674;28;20185;-66
2023/08/23 01:52:32;;;;;;;13.63;12.00;;;;;;;24.08;100.00;101459.69;2113555;28;20198;-66
2023/08/23 01:53:32;;;;;;;12.63;11.30;;;;;;;23.66;100.00;101405.09;2114152;28;20174;-66
2023/08/23 01:54:33;;;;;;;14.37;12.43;;;;;;;23.41;100.00;101361.44;2113826;28;20221;-66
2023/08/23 01:55:33;;;;;;;13.03;11.80;;;;;;;24.09;100.00;101466.91;2119179;28;20185;-66
2023/08/23 01:56:34;;;;;;;13.50;12.20;;;;;;;24.13;100.00;101473.13;2117787;27;20190;-66
2023/08/23 01:57:34;;;;;;;12.90;11.73;;;;;;;24.02;100.00;101450.41;2114062;28;20217;-66
2023/08/23 01:58:34;;;;;;;12.80;11.57;;;;;;;24.12;100.00;101468.72;2113646;28;20166;-66
2023/08/23 01:59:37;;;;;;;16.40;12.40;;;;;;;24.11;100.00;101469.22;2113927;28;20183;-66
2023/08/23 02:00:37;;;;;;;17.93;12.10;;;;;;;24.02;100.00;101467.38;2114053;27;20645;-66
2023/08/23 02:01:38;;;;;;;14.97;12.47;;;;;;;24.06;100.00;101461.47;2114360;28;20243;-66
2023/08/23 02:02:38;;;;;;;14.53;11.77;;;;;;;24.05;100.00;101463.53;2113408;28;20206;-66
2023/08/23 02:03:38;;;;;;;14.77;12.07;;;;;;;24.06;100.00;101467.13;2114987;28;20190;-66
2023/08/23 02:04:39;;;;;;;14.77;12.20;;;;;;;24.06;100.00;101465.06;2120299;27;20673;-66
2023/08/23 02:05:39;;;;;;;19.00;12.20;;;;;;;23.99;100.00;101468.38;2119548;27;20558;-67
2023/08/23 02:06:40;;;;;;;18.50;12.33;;;;;;;23.98;100.00;101455.50;2115518;28;20825;-66
2023/08/23 02:07:40;;;;;;;24.80;13.40;;;;;;;23.99;100.00;101461.94;2117830;27;20213;-66
2023/08/23 02:08:40;;;;;;;28.43;13.67;;;;;;;24.00;100.00;101463.50;2115667;28;20170;-66
2023/08/23 02:09:41;;;;;;;20.87;13.07;;;;;;;23.97;100.00;101465.28;2115853;28;20189;-66
2023/08/23 02:10:42;;;;;;;22.20;13.20;;;;;;;23.98;100.00;101463.22;2115471;27;20191;-66
2023/08/23 02:11:42;;;;;;;20.63;13.23;;;;;;;23.90;100.00;101451.59;2115333;27;20201;-66
2023/08/23 02:12:43;;;;;;;17.90;12.90;;;;;;;23.99;100.00;101462.72;2114694;28;20269;-66
2023/08/23 02:13:43;;;;;;;17.10;13.43;;;;;;;23.97;100.00;101464.50;2115431;28;20216;-66
2023/08/23 02:14:43;;;;;;;17.83;12.63;;;;;;;23.95;100.00;101465.00;2115355;28;20183;-66
2023/08/23 02:15:44;;;;;;;19.07;13.37;;;;;;;23.97;100.00;101473.78;2116909;27;20367;-65
2023/08/23 02:16:44;;;;;;;22.67;12.90;;;;;;;23.82;100.00;101444.03;2122797;27;20260;-66
2023/08/23 02:17:45;;;;;;;18.70;12.13;;;;;;;23.99;100.00;101464.75;2115864;28;20174;-66
2023/08/23 02:18:45;;;;;;;14.50;12.23;;;;;;;23.95;100.00;101476.31;2115345;28;20834;-66
2023/08/23 02:19:46;;;;;;;14.30;11.37;;;;;;;23.95;100.00;101465.00;2115201;27;20182;-66
2023/08/23 02:20:46;;;;;;;13.73;12.07;;;;;;;23.89;100.00;101467.03;2115535;28;20178;-66
2023/08/23 02:21:46;;;;;;;15.50;11.90;;;;;;;23.21;100.00;101363.59;2115264;28;20705;-66
2023/08/23 02:22:47;;;;;;;16.77;11.83;;;;;;;23.91;100.00;101470.13;2115109;27;20182;-66
2023/08/23 02:23:47;;;;;;;14.43;12.63;;;;;;;23.95;100.00;101467.06;2115035;28;20204;-66
2023/08/23 02:24:47;;;;;;;14.20;12.80;;;;;;;23.96;100.00;101462.97;2115216;27;20178;-66
2023/08/23 02:25:48;;;;;;;16.33;12.93;;;;;;;23.95;100.00;101465.00;2114616;27;20253;-66
2023/08/23 02:26:48;;;;;;;14.10;12.67;;;;;;;23.82;100.00;101449.69;2115622;28;20231;-67
2023/08/23 02:27:49;;;;;;;13.83;12.47;;;;;;;23.95;100.00;101470.66;2114706;28;20186;-66
2023/08/23 02:28:49;;;;;;;14.80;12.90;;;;;;;23.92;100.00;101468.06;2114478;28;20198;-66
2023/08/23 02:29:49;;;;;;;14.83;13.43;;;;;;;23.94;100.00;101471.16;2115417;27;20186;-66
2023/08/23 02:30:50;;;;;;;19.30;13.33;;;;;;;23.95;100.00;101467.06;2114510;28;20190;-66
2023/08/23 02:31:50;;;;;;;14.53;13.10;;;;;;;23.11;100.00;101333.91;2122194;27;20197;-67
2023/08/23 02:32:51;;;;;;;18.13;14.00;;;;;;;23.96;100.00;101469.38;2115035;28;20253;-66
2023/08/23 02:33:51;;;;;;;17.17;13.80;;;;;;;23.96;100.00;101466.53;2115502;28;20179;-67
2023/08/23 02:34:51;;;;;;;16.37;13.70;;;;;;;23.93;100.00;101464.75;2124047;27;20219;-67
2023/08/23 02:35:52;;;;;;;16.10;13.57;;;;;;;23.97;100.00;101467.34;2115332;27;20202;-67
2023/08/23 02:36:52;;;;;;;14.87;13.47;;;;;;;23.95;100.00;101467.06;2115448;27;20209;-66
2023/08/23 02:37:54;;;;;;;15.90;13.90;;;;;;;23.95;100.00;101465.00;2117260;27;20190;-65
2023/08/23 02:38:55;;;;;;;16.13;14.53;;;;;;;23.96;100.00;101466.53;2119138;27;20570;-66
2023/08/23 02:39:55;;;;;;;15.77;14.37;;;;;;;23.85;100.00;101454.38;2116058;27;20221;-66
2023/08/23 02:40:55;;;;;;;17.30;15.50;;;;;;;23.94;100.00;101463.47;2121432;27;20193;-66
2023/08/23 02:41:56;;;;;;;17.90;16.03;;;;;;;23.89;100.00;101458.53;2115969;27;20162;-66
2023/08/23 02:42:56;;;;;;;18.87;16.87;;;;;;;23.88;100.00;101456.97;2123874;27;20667;-66
2023/08/23 02:43:57;;;;;;;17.63;15.93;;;;;;;23.90;100.00;101465.75;2123415;27;20189;-66
2023/08/23 02:44:57;;;;;;;17.67;16.07;;;;;;;23.84;100.00;101466.97;2116331;27;20214;-66
2023/08/23 02:45:57;;;;;;;17.23;15.50;;;;;;;23.90;100.00;101464.97;2120873;27;20185;-66
2023/08/23 02:46:58;;;;;;;16.73;15.03;;;;;;;23.93;100.00;101466.78;2118538;27;20276;-66
2023/08/23 02:47:58;;;;;;;16.43;14.83;;;;;;;23.90;100.00;101459.31;2118486;27;20177;-66
2023/08/23 02:48:59;;;;;;;17.87;15.73;;;;;;;23.92;100.00;101456.75;2120320;27;20690;-66
2023/08/23 02:49:59;;;;;;;19.20;15.43;;;;;;;23.87;100.00;101458.25;2114978;28;20653;-66
2023/08/23 02:51:00;;;;;;;16.20;14.70;;;;;;;23.94;100.00;101466.28;2115105;28;20163;-66
2023/08/23 02:52:00;;;;;;;17.80;15.33;;;;;;;23.95;100.00;101472.75;2115405;28;20167;-66
2023/08/23 02:53:00;;;;;;;25.70;16.53;;;;;;;23.96;100.00;101468.63;2115053;27;20642;-66
2023/08/23 02:54:01;;;;;;;18.93;16.97;;;;;;;23.92;100.00;101460.38;2121570;27;20614;-66
2023/08/23 02:55:01;;;;;;;24.80;16.20;;;;;;;23.93;100.00;101466.78;2118191;27;20189;-66
2023/08/23 02:56:02;;;;;;;18.83;16.97;;;;;;;23.95;100.00;101465.00;2118706;27;20192;-66
2023/08/23 02:57:02;;;;;;;19.53;17.73;;;;;;;23.95;100.00;101465.00;2120480;27;20323;-66
2023/08/23 02:58:04;;;;;;;19.40;17.50;;;;;;;23.94;100.00;101471.16;2115186;28;20174;-66
2023/08/23 02:59:04;;;;;;;21.83;19.53;;;;;;;23.96;100.00;101471.44;2114889;28;20663;-66
2023/08/23 03:00:05;;;;;;;20.70;18.50;;;;;;;23.96;100.00;101468.63;2115431;28;20731;-66
2023/08/23 03:01:06;;;;;;;19.33;17.43;;;;;;;23.96;100.00;101469.38;2114499;28;20189;-66
2023/08/23 03:02:06;;;;;;;19.10;17.17;;;;;;;23.96;100.00;101463.72;2122105;27;20268;-66
2023/08/23 03:03:07;;;;;;;18.90;17.10;;;;;;;23.95;100.00;101473.50;2117321;27;20202;-66
2023/08/23 03:04:07;;;;;;;18.13;16.20;;;;;;;23.95;100.00;101469.91;2119850;27;20309;-66
2023/08/23 03:05:08;;;;;;;18.57;16.37;;;;;;;23.90;100.00;101465.75;2119343;27;20206;-66
2023/08/23 03:06:08;;;;;;;20.50;18.50;;;;;;;23.95;100.00;101467.84;2114308;28;20257;-66
2023/08/23 03:07:08;;;;;;;20.47;18.40;;;;;;;23.94;100.00;101471.94;2114850;28;20232;-66
2023/08/23 03:08:09;;;;;;;21.07;18.90;;;;;;;23.95;100.00;101473.50;2115075;27;20194;-67
2023/08/23 03:09:09;;;;;;;19.67;17.87;;;;;;;23.86;100.00;101456.69;2115455;28;20185;-66
2023/08/23 03:10:10;;;;;;;19.90;17.80;;;;;;;23.94;100.00;101471.94;2115202;27;20178;-66
2023/08/23 03:11:11;;;;;;;19.10;17.10;;;;;;;23.95;100.00;101469.91;2115111;27;20194;-66
2023/08/23 03:12:11;;;;;;;17.63;15.83;;;;;;;23.95;100.00;101470.66;2120150;27;20269;-66
2023/08/23 03:13:12;;;;;;;17.30;15.60;;;;;;;23.87;100.00;101454.63;2119422;27;20260;-66
2023/08/23 03:14:12;;;;;;;23.93;15.80;;;;;;;23.97;100.00;101473.00;2117316;27;20229;-66
2023/08/23 03:15:12;;;;;;;16.03;14.20;;;;;;;23.99;100.00;101468.38;2120832;27;20172;-66
2023/08/23 03:16:13;;;;;;;16.53;14.83;;;;;;;23.98;100.00;101466.84;2114649;28;20176;-66
2023/08/23 03:17:13;;;;;;;17.60;14.60;;;;;;;23.96;100.00;101468.63;2115231;28;20185;-66
2023/08/23 03:18:14;;;;;;;16.93;14.17;;;;;;;23.27;100.00;101350.25;2115002;28;20266;-66
2023/08/23 03:19:14;;;;;;;15.80;13.57;;;;;;;23.96;100.00;101462.97;2114985;28;20233;-66
2023/08/23 03:20:14;;;;;;;17.10;14.07;;;;;;;23.60;100.00;101407.84;2120672;27;20189;-66
2023/08/23 03:21:15;;;;;;;22.40;13.80;;;;;;;23.94;100.00;101466.28;2118932;27;20186;-66
2023/08/23 03:22:15;;;;;;;18.33;13.60;;;;;;;23.95;100.00;101467.06;2114808;28;20212;-66
2023/08/23 03:23:17;;;;;;;19.03;13.93;;;;;;;23.93;100.00;101466.78;2114659;27;20258;-66
2023/08/23 03:24:17;;;;;;;18.13;13.60;;;;;;;23.93;100.00;101470.41;2114975;27;20222;-66
2023/08/23 03:25:17;;;;;;;15.23;13.70;;;;;;;23.92;100.00;101463.19;2113658;27;20763;-66
2023/08/23 03:26:18;;;;;;;15.67;13.93;;;;;;;23.90;100.00;101465.75;2122629;27;20639;-66
2023/08/23 03:27:19;;;;;;;15.47;13.73;;;;;;;23.85;100.00;101449.47;2115009;28;20703;-66
2023/08/23 03:28:19;;;;;;;16.43;13.37;;;;;;;23.88;100.00;101468.28;2114935;28;20201;-66
2023/08/23 03:29:20;;;;;;;17.87;14.23;;;;;;;23.89;100.00;101467.03;2114921;28;20193;-66
2023/08/23 03:30:20;;;;;;;14.53;13.17;;;;;;;23.89;100.00;101464.19;2114782;27;20194;-66
2023/08/23 03:31:20;;;;;;;16.30;13.90;;;;;;;23.90;100.00;101465.75;2114070;27;20237;-66
2023/08/23 03:32:21;;;;;;;16.13;14.43;;;;;;;23.89;100.00;101464.19;2113857;28;20183;-66
2023/08/23 03:33:21;;;;;;;18.30;16.40;;;;;;;23.88;100.00;101465.44;2114682;27;20174;-66
2023/08/23 03:34:22;;;;;;;18.33;15.57;;;;;;;23.87;100.00;101463.13;2115271;28;20174;-66
2023/08/23 03:35:22;;;;;;;17.73;15.93;;;;;;;23.89;100.00;101475.53;2122467;27;20727;-66
2023/08/23 03:36:23;;;;;;;17.57;15.60;;;;;;;23.88;100.00;101467.50;2115889;27;20220;-66
2023/08/23 03:37:24;;;;;;;18.13;15.93;;;;;;;23.86;100.00;101464.41;2118876;27;20194;-67
2023/08/23 03:38:24;;;;;;;17.20;15.40;;;;;;;23.86;100.00;101468.03;2118434;27;20199;-66
2023/08/23 03:39:25;;;;;;;17.33;15.73;;;;;;;23.86;100.00;101464.41;2114165;28;20194;-66
2023/08/23 03:40:25;;;;;;;17.13;14.97;;;;;;;23.85;100.00;101468.53;2118521;27;20261;-66
2023/08/23 03:41:26;;;;;;;17.93;15.93;;;;;;;23.67;100.00;101441.38;2114687;28;20178;-66
2023/08/23 03:42:26;;;;;;;17.37;15.83;;;;;;;23.86;100.00;101467.22;2114400;28;20198;-66
2023/08/23 03:43:28;;;;;;;20.60;16.63;;;;;;;23.83;100.00;101473.88;2115084;28;20170;-66
2023/08/23 03:44:29;;;;;;;18.13;15.40;;;;;;;23.86;100.00;101487.06;2114521;28;20567;-66
2023/08/23 03:45:30;;;;;;;17.73;15.20;;;;;;;23.86;100.00;101468.03;2114028;28;20202;-66
2023/08/23 03:46:31;;;;;;;20.87;15.57;;;;;;;23.84;100.00;101467.72;2114333;28;20639;-66
2023/08/23 03:47:31;;;;;;;22.80;15.00;;;;;;;23.83;100.00;101482.38;2114843;28;20603;-66
2023/08/23 03:48:31;;;;;;;22.97;15.27;;;;;;;23.75;100.00;101453.00;2114730;28;20198;-66
2023/08/23 03:49:33;;;;;;;21.47;15.30;;;;;;;23.78;100.00;101466.91;2114652;28;20202;-66
2023/08/23 03:50:34;;;;;;;20.57;15.07;;;;;;;23.80;100.00;101463.59;2114548;28;20166;-66
2023/08/23 03:51:34;;;;;;;20.70;15.30;;;;;;;23.81;100.00;101470.78;2114309;28;20209;-66
2023/08/23 03:52:35;;;;;;;22.67;15.13;;;;;;;23.78;100.00;101469.75;2122536;27;20750;-66
2023/08/23 03:53:35;;;;;;;16.87;13.97;;;;;;;23.79;100.00;101462.03;2114626;28;20568;-66
2023/08/23 03:54:36;;;;;;;19.90;15.47;;;;;;;23.81;100.00;101471.59;2114763;28;20630;-66
2023/08/23 03:55:36;;;;;;;17.83;15.03;;;;;;;23.81;100.00;101474.41;2113948;27;20197;-66
2023/08/23 03:56:37;;;;;;;18.97;14.90;;;;;;;23.84;100.00;101476.22;2113615;28;20218;-66
2023/08/23 03:57:37;;;;;;;16.93;14.80;;;;;;;23.64;100.00;101447.25;2117294;27;20209;-66
2023/08/23 03:58:38;;;;;;;15.93;14.23;;;;;;;23.84;100.00;101469.81;2121754;27;20173;-66
2023/08/23 03:59:38;;;;;;;17.37;14.97;;;;;;;23.87;100.00;101468.78;2114398;28;20243;-66
2023/08/23 04:00:38;;;;;;;18.07;15.17;;;;;;;23.87;100.00;101472.41;2115013;28;20174;-66
2023/08/23 04:01:39;;;;;;;18.20;14.43;;;;;;;23.87;100.00;101465.94;2114808;28;20185;-66
2023/08/23 04:02:42;;;;;;;17.63;14.07;;;;;;;23.85;100.00;101463.63;2114411;28;20193;-66
2023/08/23 04:03:42;;;;;;;16.00;14.17;;;;;;;23.86;100.00;101461.56;2114719;28;20249;-66
2023/08/23 04:04:43;;;;;;;17.40;15.17;;;;;;;23.87;100.00;101460.28;2114329;28;20751;-66
2023/08/23 04:05:43;;;;;;;16.43;14.30;;;;;;;23.88;100.00;101468.28;2117757;27;20204;-66
2023/08/23 04:06:43;;;;;;;18.23;14.57;;;;;;;23.89;100.00;101461.38;2119953;27;20176;-66
2023/08/23 04:07:44;;;;;;;17.27;13.77;;;;;;;23.90;100.00;101470.66;2114514;28;20178;-66
2023/08/23 04:08:44;;;;;;;16.57;14.33;;;;;;;23.90;100.00;101462.16;2114320;28;20170;-66
2023/08/23 04:09:45;;;;;;;17.70;14.07;;;;;;;23.88;100.00;101459.00;2114921;28;20247;-66
2023/08/23 04:10:50;;;;;;;18.20;14.20;;;;;;;23.41;100.00;101388.94;2114583;28;20178;-66
2023/08/23 04:11:50;;;;;;;17.27;13.63;;;;;;;23.85;100.00;101460.78;2114664;28;20246;-66
2023/08/23 04:12:50;;;;;;;22.20;13.73;;;;;;;23.88;100.00;101459.00;2114354;28;20186;-67
2023/08/23 04:13:51;;;;;;;18.63;14.57;;;;;;;23.90;100.00;101462.16;2114081;27;20226;-66
2023/08/23 04:14:51;;;;;;;17.83;14.00;;;;;;;23.91;100.00;101458.78;2114511;28;20270;-66
2023/08/23 04:15:52;;;;;;;17.43;13.47;;;;;;;23.90;100.00;101460.06;2114082;28;20264;-66
2023/08/23 04:16:53;;;;;;;21.87;14.20;;;;;;;23.88;100.00;101461.84;2113764;28;20166;-66
2023/08/23 04:17:53;;;;;;;15.83;14.17;;;;;;;23.86;100.00;101465.19;2114358;27;20738;-66
2023/08/23 04:18:54;;;;;;;16.30;13.70;;;;;;;23.90;100.00;101467.81;2114862;28;20163;-66
2023/08/23 04:19:55;;;;;;;16.30;14.60;;;;;;;23.92;100.00;101470.91;2114252;28;20198;-66
2023/08/23 04:20:59;;;;;;;16.30;13.80;;;;;;;23.92;100.00;101468.84;2114143;28;20263;-66
2023/08/23 04:22:00;;;;;;;9.17;8.17;;;;;;;24.03;100.00;101468.13;2114677;28;20198;-61
2023/08/23 04:23:00;;;;;;;7.77;7.10;;;;;;;24.64;100.00;101453.03;2115174;28;20663;-62
2023/08/23 04:24:01;;;;;;;7.73;7.10;;;;;;;25.23;100.00;101469.94;2115143;28;20202;-62
2023/08/23 04:25:01;;;;;;;7.50;6.90;;;;;;;25.11;100.00;101418.09;2115115;28;20234;-62
2023/08/23 04:26:02;;;;;;;8.73;8.03;;;;;;;25.51;100.00;101467.94;2114290;27;20167;-63
2023/08/23 04:27:02;;;;;;;9.20;8.30;;;;;;;25.65;100.00;101461.97;2123564;27;20214;-62
2023/08/23 04:28:03;;;;;;;9.60;8.60;;;;;;;25.37;100.00;101406.53;2123078;27;20714;-62
2023/08/23 04:29:04;;;;;;;9.43;8.53;;;;;;;26.02;100.00;101461.72;2123012;27;20169;-62
2023/08/23 04:30:08;;;;;;;11.47;9.40;;;;;;;26.20;100.00;101461.16;2123664;27;20173;-62
2023/08/23 04:31:08;;;;;;;19.17;9.80;;;;;;;26.39;100.00;101462.91;2123608;27;20201;-65
2023/08/23 04:32:12;;;;;;;34.27;11.27;;;;;;;26.60;100.00;101464.16;2123459;27;20170;-59
2023/08/23 04:33:13;;;;;;;36.53;11.67;;;;;;;26.53;100.00;101392.81;2123222;27;20676;-61
2023/08/23 04:34:13;;;;;;;32.03;12.52;;;;;;;27.05;100.00;101462.63;2123360;27;20571;-59
2023/08/23 04:35:13;;;;;;;34.17;11.80;;;;;;;27.06;100.00;101471.91;2123202;27;20186;-60
2023/08/23 04:36:14;;;;;;;37.50;12.10;;;;;;;27.05;100.00;101459.78;2123608;27;20204;-61